sensor_id;sensor_type;location;lat;lon;timestamp;P1;durP1;ratioP1;P2;durP2;ratioP2
25237;SDS011;13185;50.872;5.306;2023-02-15T00:01:47;25.90;;;15.60;;
25237;SDS011;13185;50.872;5.306;2023-02-15T00:04:14;25.47;;;15.60;;
25237;SDS011;13185;50.872;5.306;2023-02-15T00:06:42;30.03;;;17.40;;
25237;SDS011;13185;50.872;5.306;2023-02-15T00:09:08;32.73;;;16.43;;
25237;SDS011;13185;50.872;5.306;2023-02-15T00:11:34;29.43;;;16.70;;
25237;SDS011;13185;50.872;5.306;2023-02-15T00:16:34;26.70;;;15.43;;
25237;SDS011;13185;50.872;5.306;2023-02-15T00:19:00;29.67;;;15.77;;
25237;SDS011;13185;50.872;5.306;2023-02-15T00:21:27;25.60;;;16.00;;
25237;SDS011;13185;50.872;5.306;2023-02-15T00:23:55;25.53;;;15.90;;
25237;SDS011;13185;50.872;5.306;2023-02-15T00:26:21;31.10;;;17.77;;
25237;SDS011;13185;50.872;5.306;2023-02-15T00:28:47;27.53;;;15.77;;
25237;SDS011;13185;50.872;5.306;2023-02-15T00:31:12;26.27;;;15.97;;
25237;SDS011;13185;50.872;5.306;2023-02-15T00:33:38;26.97;;;16.20;;
25237;SDS011;13185;50.872;5.306;2023-02-15T00:36:08;24.87;;;15.77;;
25237;SDS011;13185;50.872;5.306;2023-02-15T00:38:35;27.43;;;16.17;;
25237;SDS011;13185;50.872;5.306;2023-02-15T00:41:02;28.70;;;16.27;;
25237;SDS011;13185;50.872;5.306;2023-02-15T00:43:30;28.23;;;15.07;;
25237;SDS011;13185;50.872;5.306;2023-02-15T00:45:57;27.53;;;15.13;;
25237;SDS011;13185;50.872;5.306;2023-02-15T00:48:22;25.70;;;16.00;;
25237;SDS011;13185;50.872;5.306;2023-02-15T00:50:49;22.47;;;15.00;;
25237;SDS011;13185;50.872;5.306;2023-02-15T00:53:16;23.43;;;14.47;;
25237;SDS011;13185;50.872;5.306;2023-02-15T00:55:41;24.20;;;15.40;;
25237;SDS011;13185;50.872;5.306;2023-02-15T00:58:07;25.37;;;15.13;;
25237;SDS011;13185;50.872;5.306;2023-02-15T01:00:33;26.30;;;15.63;;
25237;SDS011;13185;50.872;5.306;2023-02-15T01:02:59;27.77;;;15.73;;
25237;SDS011;13185;50.872;5.306;2023-02-15T01:05:25;26.13;;;15.43;;
25237;SDS011;13185;50.872;5.306;2023-02-15T01:07:50;26.87;;;16.10;;
25237;SDS011;13185;50.872;5.306;2023-02-15T01:10:16;28.30;;;15.90;;
25237;SDS011;13185;50.872;5.306;2023-02-15T01:12:41;25.90;;;14.90;;
25237;SDS011;13185;50.872;5.306;2023-02-15T01:15:07;29.43;;;15.77;;
25237;SDS011;13185;50.872;5.306;2023-02-15T01:17:32;29.50;;;16.77;;
25237;SDS011;13185;50.872;5.306;2023-02-15T01:19:58;27.73;;;15.33;;
25237;SDS011;13185;50.872;5.306;2023-02-15T01:22:24;25.93;;;15.27;;
25237;SDS011;13185;50.872;5.306;2023-02-15T01:24:50;26.10;;;14.87;;
25237;SDS011;13185;50.872;5.306;2023-02-15T01:27:16;28.73;;;15.67;;
25237;SDS011;13185;50.872;5.306;2023-02-15T01:29:42;28.10;;;16.87;;
25237;SDS011;13185;50.872;5.306;2023-02-15T01:32:08;29.70;;;15.93;;
25237;SDS011;13185;50.872;5.306;2023-02-15T01:34:33;33.13;;;16.27;;
25237;SDS011;13185;50.872;5.306;2023-02-15T01:36:59;26.63;;;16.10;;
25237;SDS011;13185;50.872;5.306;2023-02-15T01:39:24;30.47;;;15.87;;
25237;SDS011;13185;50.872;5.306;2023-02-15T01:41:50;27.03;;;15.07;;
25237;SDS011;13185;50.872;5.306;2023-02-15T01:44:40;29.50;;;15.03;;
25237;SDS011;13185;50.872;5.306;2023-02-15T01:47:45;29.57;;;16.73;;
25237;SDS011;13185;50.872;5.306;2023-02-15T01:50:33;25.73;;;14.60;;
25237;SDS011;13185;50.872;5.306;2023-02-15T01:53:09;28.67;;;15.60;;
25237;SDS011;13185;50.872;5.306;2023-02-15T01:56:01;24.30;;;15.20;;
25237;SDS011;13185;50.872;5.306;2023-02-15T01:58:31;23.93;;;14.93;;
25237;SDS011;13185;50.872;5.306;2023-02-15T02:00:59;32.03;;;15.60;;
25237;SDS011;13185;50.872;5.306;2023-02-15T02:03:30;25.30;;;14.53;;
25237;SDS011;13185;50.872;5.306;2023-02-15T02:06:03;27.40;;;15.90;;
25237;SDS011;13185;50.872;5.306;2023-02-15T02:08:29;26.87;;;15.67;;
25237;SDS011;13185;50.872;5.306;2023-02-15T02:10:55;24.87;;;15.23;;
25237;SDS011;13185;50.872;5.306;2023-02-15T02:13:21;31.17;;;15.70;;
25237;SDS011;13185;50.872;5.306;2023-02-15T02:15:56;30.83;;;15.50;;
25237;SDS011;13185;50.872;5.306;2023-02-15T02:32:42;28.10;;;15.57;;
25237;SDS011;13185;50.872;5.306;2023-02-15T02:43:33;27.43;;;15.23;;
25237;SDS011;13185;50.872;5.306;2023-02-15T02:46:10;29.43;;;15.97;;
25237;SDS011;13185;50.872;5.306;2023-02-15T02:48:43;22.53;;;14.23;;
25237;SDS011;13185;50.872;5.306;2023-02-15T02:51:11;25.13;;;15.30;;
25237;SDS011;13185;50.872;5.306;2023-02-15T02:53:36;25.20;;;16.27;;
25237;SDS011;13185;50.872;5.306;2023-02-15T02:56:04;27.33;;;14.83;;
25237;SDS011;13185;50.872;5.306;2023-02-15T02:58:43;26.50;;;15.00;;
25237;SDS011;13185;50.872;5.306;2023-02-15T03:01:15;26.10;;;15.20;;
25237;SDS011;13185;50.872;5.306;2023-02-15T03:03:49;26.03;;;14.70;;
25237;SDS011;13185;50.872;5.306;2023-02-15T03:06:20;28.85;;;14.60;;
25237;SDS011;13185;50.872;5.306;2023-02-15T03:09:05;23.77;;;14.93;;
25237;SDS011;13185;50.872;5.306;2023-02-15T03:11:39;25.48;;;15.57;;
25237;SDS011;13185;50.872;5.306;2023-02-15T03:14:07;25.07;;;14.40;;
25237;SDS011;13185;50.872;5.306;2023-02-15T03:16:32;23.80;;;13.87;;
25237;SDS011;13185;50.872;5.306;2023-02-15T03:19:00;25.27;;;15.53;;
25237;SDS011;13185;50.872;5.306;2023-02-15T03:26:35;28.53;;;14.67;;
25237;SDS011;13185;50.872;5.306;2023-02-15T03:29:03;25.27;;;14.13;;
25237;SDS011;13185;50.872;5.306;2023-02-15T03:31:32;25.13;;;14.87;;
25237;SDS011;13185;50.872;5.306;2023-02-15T03:34:03;25.43;;;14.80;;
25237;SDS011;13185;50.872;5.306;2023-02-15T03:36:44;24.00;;;15.27;;
25237;SDS011;13185;50.872;5.306;2023-02-15T03:39:28;25.80;;;15.77;;
25237;SDS011;13185;50.872;5.306;2023-02-15T03:42:14;23.70;;;14.03;;
25237;SDS011;13185;50.872;5.306;2023-02-15T03:45:00;27.13;;;15.37;;
25237;SDS011;13185;50.872;5.306;2023-02-15T03:47:31;29.00;;;15.37;;
25237;SDS011;13185;50.872;5.306;2023-02-15T03:50:02;28.60;;;15.80;;
25237;SDS011;13185;50.872;5.306;2023-02-15T03:52:53;26.60;;;15.37;;
25237;SDS011;13185;50.872;5.306;2023-02-15T03:55:21;26.70;;;14.67;;
25237;SDS011;13185;50.872;5.306;2023-02-15T03:57:47;24.83;;;15.10;;
25237;SDS011;13185;50.872;5.306;2023-02-15T04:00:31;25.97;;;14.83;;
25237;SDS011;13185;50.872;5.306;2023-02-15T04:05:49;30.93;;;16.10;;
25237;SDS011;13185;50.872;5.306;2023-02-15T04:08:14;25.50;;;14.40;;
25237;SDS011;13185;50.872;5.306;2023-02-15T04:10:40;22.43;;;13.53;;
25237;SDS011;13185;50.872;5.306;2023-02-15T04:13:18;27.40;;;15.23;;
25237;SDS011;13185;50.872;5.306;2023-02-15T04:15:45;26.67;;;14.80;;
25237;SDS011;13185;50.872;5.306;2023-02-15T04:21:23;24.70;;;14.32;;
25237;SDS011;13185;50.872;5.306;2023-02-15T04:24:09;29.27;;;14.87;;
25237;SDS011;13185;50.872;5.306;2023-02-15T04:26:53;24.50;;;15.10;;
25237;SDS011;13185;50.872;5.306;2023-02-15T04:29:20;22.70;;;14.40;;
25237;SDS011;13185;50.872;5.306;2023-02-15T04:31:46;31.93;;;15.50;;
25237;SDS011;13185;50.872;5.306;2023-02-15T04:34:12;24.33;;;14.27;;
25237;SDS011;13185;50.872;5.306;2023-02-15T04:36:38;26.20;;;16.00;;
25237;SDS011;13185;50.872;5.306;2023-02-15T04:39:04;25.47;;;15.47;;
25237;SDS011;13185;50.872;5.306;2023-02-15T04:41:30;24.73;;;14.37;;
25237;SDS011;13185;50.872;5.306;2023-02-15T04:43:56;28.40;;;14.17;;
25237;SDS011;13185;50.872;5.306;2023-02-15T04:46:22;23.53;;;14.23;;
25237;SDS011;13185;50.872;5.306;2023-02-15T04:48:48;24.70;;;14.13;;
25237;SDS011;13185;50.872;5.306;2023-02-15T04:51:13;24.50;;;13.80;;
25237;SDS011;13185;50.872;5.306;2023-02-15T04:53:38;25.47;;;15.17;;
25237;SDS011;13185;50.872;5.306;2023-02-15T04:56:04;28.20;;;14.90;;
25237;SDS011;13185;50.872;5.306;2023-02-15T04:58:29;25.03;;;13.90;;
25237;SDS011;13185;50.872;5.306;2023-02-15T05:00:55;26.87;;;14.63;;
25237;SDS011;13185;50.872;5.306;2023-02-15T05:03:21;25.33;;;14.90;;
25237;SDS011;13185;50.872;5.306;2023-02-15T05:05:47;26.57;;;14.97;;
25237;SDS011;13185;50.872;5.306;2023-02-15T05:08:12;25.93;;;14.40;;
25237;SDS011;13185;50.872;5.306;2023-02-15T05:10:38;29.13;;;15.27;;
25237;SDS011;13185;50.872;5.306;2023-02-15T05:13:03;28.80;;;15.73;;
25237;SDS011;13185;50.872;5.306;2023-02-15T05:15:28;26.83;;;15.23;;
25237;SDS011;13185;50.872;5.306;2023-02-15T05:17:54;27.20;;;15.30;;
25237;SDS011;13185;50.872;5.306;2023-02-15T05:20:19;27.07;;;15.27;;
25237;SDS011;13185;50.872;5.306;2023-02-15T05:22:45;31.33;;;16.13;;
25237;SDS011;13185;50.872;5.306;2023-02-15T05:25:10;31.33;;;15.50;;
25237;SDS011;13185;50.872;5.306;2023-02-15T05:27:54;30.30;;;15.60;;
25237;SDS011;13185;50.872;5.306;2023-02-15T05:30:38;24.83;;;15.67;;
25237;SDS011;13185;50.872;5.306;2023-02-15T05:33:05;24.83;;;15.17;;
25237;SDS011;13185;50.872;5.306;2023-02-15T05:35:32;27.30;;;15.67;;
25237;SDS011;13185;50.872;5.306;2023-02-15T05:37:57;27.70;;;15.37;;
25237;SDS011;13185;50.872;5.306;2023-02-15T05:40:23;28.37;;;15.30;;
25237;SDS011;13185;50.872;5.306;2023-02-15T05:42:48;27.17;;;15.03;;
25237;SDS011;13185;50.872;5.306;2023-02-15T05:45:14;25.70;;;15.60;;
25237;SDS011;13185;50.872;5.306;2023-02-15T05:47:40;30.43;;;15.20;;
25237;SDS011;13185;50.872;5.306;2023-02-15T05:50:06;28.30;;;16.27;;
25237;SDS011;13185;50.872;5.306;2023-02-15T05:52:32;32.93;;;16.70;;
25237;SDS011;13185;50.872;5.306;2023-02-15T05:54:58;32.00;;;16.00;;
25237;SDS011;13185;50.872;5.306;2023-02-15T05:57:25;28.70;;;15.70;;
25237;SDS011;13185;50.872;5.306;2023-02-15T05:59:51;28.67;;;16.77;;
25237;SDS011;13185;50.872;5.306;2023-02-15T06:02:16;28.47;;;16.77;;
25237;SDS011;13185;50.872;5.306;2023-02-15T06:04:42;29.37;;;16.53;;
25237;SDS011;13185;50.872;5.306;2023-02-15T06:07:07;29.40;;;17.33;;
25237;SDS011;13185;50.872;5.306;2023-02-15T06:09:33;22.83;;;15.17;;
25237;SDS011;13185;50.872;5.306;2023-02-15T06:11:58;24.17;;;15.07;;
25237;SDS011;13185;50.872;5.306;2023-02-15T06:14:23;27.57;;;16.30;;
25237;SDS011;13185;50.872;5.306;2023-02-15T06:16:49;29.10;;;15.77;;
25237;SDS011;13185;50.872;5.306;2023-02-15T06:19:14;27.80;;;15.63;;
25237;SDS011;13185;50.872;5.306;2023-02-15T06:21:40;29.30;;;15.83;;
25237;SDS011;13185;50.872;5.306;2023-02-15T06:24:07;27.10;;;15.43;;
25237;SDS011;13185;50.872;5.306;2023-02-15T06:26:33;25.93;;;15.50;;
25237;SDS011;13185;50.872;5.306;2023-02-15T06:28:59;24.03;;;14.03;;
25237;SDS011;13185;50.872;5.306;2023-02-15T06:31:25;27.03;;;14.57;;
25237;SDS011;13185;50.872;5.306;2023-02-15T06:33:50;30.43;;;14.80;;
25237;SDS011;13185;50.872;5.306;2023-02-15T06:36:16;24.53;;;13.93;;
25237;SDS011;13185;50.872;5.306;2023-02-15T06:38:41;26.47;;;14.97;;
25237;SDS011;13185;50.872;5.306;2023-02-15T06:41:07;30.33;;;16.30;;
25237;SDS011;13185;50.872;5.306;2023-02-15T06:43:32;25.57;;;14.90;;
25237;SDS011;13185;50.872;5.306;2023-02-15T06:45:59;26.67;;;15.50;;
25237;SDS011;13185;50.872;5.306;2023-02-15T06:48:25;30.23;;;15.40;;
25237;SDS011;13185;50.872;5.306;2023-02-15T06:50:51;26.20;;;14.90;;
25237;SDS011;13185;50.872;5.306;2023-02-15T06:53:16;31.80;;;15.27;;
25237;SDS011;13185;50.872;5.306;2023-02-15T06:55:42;31.07;;;15.30;;
25237;SDS011;13185;50.872;5.306;2023-02-15T06:58:07;32.20;;;17.03;;
25237;SDS011;13185;50.872;5.306;2023-02-15T07:00:33;32.00;;;15.50;;
25237;SDS011;13185;50.872;5.306;2023-02-15T07:02:58;39.47;;;15.53;;
25237;SDS011;13185;50.872;5.306;2023-02-15T07:05:24;43.30;;;16.60;;
25237;SDS011;13185;50.872;5.306;2023-02-15T07:07:55;36.67;;;15.70;;
25237;SDS011;13185;50.872;5.306;2023-02-15T07:10:22;40.23;;;16.00;;
25237;SDS011;13185;50.872;5.306;2023-02-15T07:12:47;37.00;;;16.10;;
25237;SDS011;13185;50.872;5.306;2023-02-15T07:15:14;30.00;;;16.83;;
25237;SDS011;13185;50.872;5.306;2023-02-15T07:17:41;27.17;;;14.83;;
25237;SDS011;13185;50.872;5.306;2023-02-15T07:20:11;26.13;;;14.77;;
25237;SDS011;13185;50.872;5.306;2023-02-15T07:22:42;25.53;;;14.43;;
25237;SDS011;13185;50.872;5.306;2023-02-15T07:25:08;27.23;;;14.97;;
25237;SDS011;13185;50.872;5.306;2023-02-15T07:27:35;31.03;;;15.70;;
25237;SDS011;13185;50.872;5.306;2023-02-15T07:30:00;31.07;;;16.27;;
25237;SDS011;13185;50.872;5.306;2023-02-15T07:32:29;32.53;;;15.47;;
25237;SDS011;13185;50.872;5.306;2023-02-15T07:34:56;76.20;;;19.93;;
25237;SDS011;13185;50.872;5.306;2023-02-15T07:37:22;121.43;;;24.73;;
25237;SDS011;13185;50.872;5.306;2023-02-15T07:39:48;70.97;;;20.27;;
25237;SDS011;13185;50.872;5.306;2023-02-15T07:42:13;163.13;;;28.50;;
25237;SDS011;13185;50.872;5.306;2023-02-15T07:44:39;524.17;;;64.93;;
25237;SDS011;13185;50.872;5.306;2023-02-15T07:47:05;440.37;;;57.33;;
25237;SDS011;13185;50.872;5.306;2023-02-15T07:49:31;302.83;;;43.37;;
25237;SDS011;13185;50.872;5.306;2023-02-15T07:51:56;209.17;;;35.60;;
25237;SDS011;13185;50.872;5.306;2023-02-15T07:54:22;167.00;;;29.73;;
25237;SDS011;13185;50.872;5.306;2023-02-15T07:56:47;101.63;;;25.87;;
25237;SDS011;13185;50.872;5.306;2023-02-15T07:59:13;59.57;;;20.30;;
25237;SDS011;13185;50.872;5.306;2023-02-15T08:01:39;45.97;;;18.27;;
25237;SDS011;13185;50.872;5.306;2023-02-15T08:04:05;37.93;;;18.03;;
25237;SDS011;13185;50.872;5.306;2023-02-15T08:06:32;32.93;;;17.43;;
25237;SDS011;13185;50.872;5.306;2023-02-15T08:09:00;33.23;;;17.73;;
25237;SDS011;13185;50.872;5.306;2023-02-15T08:14:07;30.27;;;17.27;;
25237;SDS011;13185;50.872;5.306;2023-02-15T08:19:24;29.93;;;17.37;;
25237;SDS011;13185;50.872;5.306;2023-02-15T08:21:55;33.33;;;18.80;;
25237;SDS011;13185;50.872;5.306;2023-02-15T08:24:23;30.03;;;17.53;;
25237;SDS011;13185;50.872;5.306;2023-02-15T08:26:50;36.20;;;18.97;;
25237;SDS011;13185;50.872;5.306;2023-02-15T08:29:18;30.10;;;17.60;;
25237;SDS011;13185;50.872;5.306;2023-02-15T08:31:45;34.13;;;19.17;;
25237;SDS011;13185;50.872;5.306;2023-02-15T08:34:12;34.77;;;18.77;;
25237;SDS011;13185;50.872;5.306;2023-02-15T08:36:40;34.23;;;19.67;;
25237;SDS011;13185;50.872;5.306;2023-02-15T08:39:06;36.40;;;19.90;;
25237;SDS011;13185;50.872;5.306;2023-02-15T08:41:36;34.97;;;19.53;;
25237;SDS011;13185;50.872;5.306;2023-02-15T08:44:04;37.77;;;20.63;;
25237;SDS011;13185;50.872;5.306;2023-02-15T08:46:32;35.50;;;20.27;;
25237;SDS011;13185;50.872;5.306;2023-02-15T08:49:00;32.87;;;19.03;;
25237;SDS011;13185;50.872;5.306;2023-02-15T08:51:32;32.97;;;18.23;;
25237;SDS011;13185;50.872;5.306;2023-02-15T08:54:00;30.37;;;18.57;;
25237;SDS011;13185;50.872;5.306;2023-02-15T08:56:29;33.03;;;19.40;;
25237;SDS011;13185;50.872;5.306;2023-02-15T08:58:57;37.83;;;19.37;;
25237;SDS011;13185;50.872;5.306;2023-02-15T09:01:23;30.17;;;18.87;;
25237;SDS011;13185;50.872;5.306;2023-02-15T09:03:51;31.37;;;18.10;;
25237;SDS011;13185;50.872;5.306;2023-02-15T09:06:21;34.70;;;20.07;;
25237;SDS011;13185;50.872;5.306;2023-02-15T09:08:47;30.97;;;19.23;;
25237;SDS011;13185;50.872;5.306;2023-02-15T09:11:14;39.30;;;21.37;;
25237;SDS011;13185;50.872;5.306;2023-02-15T09:13:47;35.80;;;20.95;;
25237;SDS011;13185;50.872;5.306;2023-02-15T09:16:14;48.57;;;22.10;;
25237;SDS011;13185;50.872;5.306;2023-02-15T09:18:42;45.47;;;22.23;;
25237;SDS011;13185;50.872;5.306;2023-02-15T09:21:11;37.40;;;21.63;;
25237;SDS011;13185;50.872;5.306;2023-02-15T09:26:09;36.97;;;20.50;;
25237;SDS011;13185;50.872;5.306;2023-02-15T09:28:36;41.23;;;22.33;;
25237;SDS011;13185;50.872;5.306;2023-02-15T09:31:05;55.47;;;24.40;;
25237;SDS011;13185;50.872;5.306;2023-02-15T09:33:34;43.57;;;20.33;;
25237;SDS011;13185;50.872;5.306;2023-02-15T09:36:01;39.03;;;18.87;;
25237;SDS011;13185;50.872;5.306;2023-02-15T09:38:27;30.67;;;19.23;;
25237;SDS011;13185;50.872;5.306;2023-02-15T09:41:07;32.93;;;17.67;;
25237;SDS011;13185;50.872;5.306;2023-02-15T09:43:46;33.70;;;17.90;;
25237;SDS011;13185;50.872;5.306;2023-02-15T09:52:17;32.95;;;17.17;;
25237;SDS011;13185;50.872;5.306;2023-02-15T09:55:12;38.87;;;18.23;;
25237;SDS011;13185;50.872;5.306;2023-02-15T10:06:24;28.70;;;17.73;;
25237;SDS011;13185;50.872;5.306;2023-02-15T10:11:26;40.75;;;17.52;;
25237;SDS011;13185;50.872;5.306;2023-02-15T10:17:21;27.37;;;15.60;;
25237;SDS011;13185;50.872;5.306;2023-02-15T10:25:33;32.78;;;18.13;;
25237;SDS011;13185;50.872;5.306;2023-02-15T10:28:17;31.73;;;17.45;;
25237;SDS011;13185;50.872;5.306;2023-02-15T10:30:49;31.90;;;18.52;;
25237;SDS011;13185;50.872;5.306;2023-02-15T10:33:21;34.90;;;17.88;;
25237;SDS011;13185;50.872;5.306;2023-02-15T10:39:11;39.33;;;17.83;;
25237;SDS011;13185;50.872;5.306;2023-02-15T10:41:45;29.80;;;17.27;;
25237;SDS011;13185;50.872;5.306;2023-02-15T10:44:42;49.47;;;19.83;;
25237;SDS011;13185;50.872;5.306;2023-02-15T10:47:30;45.08;;;21.33;;
25237;SDS011;13185;50.872;5.306;2023-02-15T10:52:49;30.50;;;17.08;;
25237;SDS011;13185;50.872;5.306;2023-02-15T10:55:50;32.50;;;15.77;;
25237;SDS011;13185;50.872;5.306;2023-02-15T10:58:38;35.28;;;16.52;;
25237;SDS011;13185;50.872;5.306;2023-02-15T11:06:21;27.58;;;14.88;;
25237;SDS011;13185;50.872;5.306;2023-02-15T11:08:54;27.90;;;17.45;;
25237;SDS011;13185;50.872;5.306;2023-02-15T11:11:28;32.30;;;18.50;;
25237;SDS011;13185;50.872;5.306;2023-02-15T11:14:02;30.07;;;19.77;;
25237;SDS011;13185;50.872;5.306;2023-02-15T11:16:40;32.78;;;17.48;;
25237;SDS011;13185;50.872;5.306;2023-02-15T11:19:31;28.17;;;18.23;;
25237;SDS011;13185;50.872;5.306;2023-02-15T11:22:02;27.85;;;17.30;;
25237;SDS011;13185;50.872;5.306;2023-02-15T11:24:30;29.20;;;16.35;;
25237;SDS011;13185;50.872;5.306;2023-02-15T11:38:06;32.42;;;20.15;;
25237;SDS011;13185;50.872;5.306;2023-02-15T11:40:47;25.05;;;14.95;;
25237;SDS011;13185;50.872;5.306;2023-02-15T11:43:20;26.05;;;15.90;;
25237;SDS011;13185;50.872;5.306;2023-02-15T11:45:47;27.00;;;14.48;;
25237;SDS011;13185;50.872;5.306;2023-02-15T11:48:13;23.63;;;13.93;;
25237;SDS011;13185;50.872;5.306;2023-02-15T11:50:40;32.33;;;19.90;;
25237;SDS011;13185;50.872;5.306;2023-02-15T11:53:11;31.52;;;20.77;;
25237;SDS011;13185;50.872;5.306;2023-02-15T11:55:39;32.92;;;18.42;;
25237;SDS011;13185;50.872;5.306;2023-02-15T12:00:55;26.30;;;14.93;;
25237;SDS011;13185;50.872;5.306;2023-02-15T12:03:45;30.17;;;18.02;;
25237;SDS011;13185;50.872;5.306;2023-02-15T12:06:18;37.80;;;25.65;;
25237;SDS011;13185;50.872;5.306;2023-02-15T12:09:20;30.00;;;20.90;;
25237;SDS011;13185;50.872;5.306;2023-02-15T12:11:49;28.27;;;15.90;;
25237;SDS011;13185;50.872;5.306;2023-02-15T12:14:14;29.25;;;18.50;;
25237;SDS011;13185;50.872;5.306;2023-02-15T12:16:47;33.50;;;16.73;;
25237;SDS011;13185;50.872;5.306;2023-02-15T12:19:29;27.33;;;16.48;;
25237;SDS011;13185;50.872;5.306;2023-02-15T12:22:02;36.90;;;21.25;;
25237;SDS011;13185;50.872;5.306;2023-02-15T12:24:30;24.58;;;16.50;;
25237;SDS011;13185;50.872;5.306;2023-02-15T12:29:41;24.10;;;15.38;;
25237;SDS011;13185;50.872;5.306;2023-02-15T12:32:10;34.00;;;22.02;;
25237;SDS011;13185;50.872;5.306;2023-02-15T12:34:43;28.95;;;16.08;;
25237;SDS011;13185;50.872;5.306;2023-02-15T12:37:19;25.10;;;15.77;;
25237;SDS011;13185;50.872;5.306;2023-02-15T12:42:25;26.23;;;15.80;;
25237;SDS011;13185;50.872;5.306;2023-02-15T12:44:55;26.42;;;17.10;;
25237;SDS011;13185;50.872;5.306;2023-02-15T12:47:23;22.27;;;15.40;;
25237;SDS011;13185;50.872;5.306;2023-02-15T12:52:48;22.45;;;14.57;;
25237;SDS011;13185;50.872;5.306;2023-02-15T12:55:20;27.33;;;17.52;;
25237;SDS011;13185;50.872;5.306;2023-02-15T12:58:08;21.95;;;15.10;;
25237;SDS011;13185;50.872;5.306;2023-02-15T13:00:41;25.52;;;16.55;;
25237;SDS011;13185;50.872;5.306;2023-02-15T13:03:14;24.52;;;15.68;;
25237;SDS011;13185;50.872;5.306;2023-02-15T13:05:44;33.90;;;23.20;;
25237;SDS011;13185;50.872;5.306;2023-02-15T13:08:15;25.42;;;16.55;;
25237;SDS011;13185;50.872;5.306;2023-02-15T13:11:09;32.08;;;22.20;;
25237;SDS011;13185;50.872;5.306;2023-02-15T13:16:28;32.88;;;21.30;;
25237;SDS011;13185;50.872;5.306;2023-02-15T13:18:57;27.30;;;18.50;;
25237;SDS011;13185;50.872;5.306;2023-02-15T13:21:29;32.13;;;21.77;;
25237;SDS011;13185;50.872;5.306;2023-02-15T13:24:06;31.05;;;20.55;;
25237;SDS011;13185;50.872;5.306;2023-02-15T13:26:41;29.17;;;19.50;;
25237;SDS011;13185;50.872;5.306;2023-02-15T13:32:06;22.50;;;15.35;;
25237;SDS011;13185;50.872;5.306;2023-02-15T13:34:42;27.52;;;18.45;;
25237;SDS011;13185;50.872;5.306;2023-02-15T13:37:15;30.75;;;18.17;;
25237;SDS011;13185;50.872;5.306;2023-02-15T13:45:09;29.55;;;20.75;;
25237;SDS011;13185;50.872;5.306;2023-02-15T13:56:07;25.88;;;16.88;;
25237;SDS011;13185;50.872;5.306;2023-02-15T14:12:56;39.88;;;16.13;;
25237;SDS011;13185;50.872;5.306;2023-02-15T14:15:50;35.80;;;17.65;;
25237;SDS011;13185;50.872;5.306;2023-02-15T14:18:35;30.90;;;18.60;;
25237;SDS011;13185;50.872;5.306;2023-02-15T14:26:25;27.92;;;15.70;;
25237;SDS011;13185;50.872;5.306;2023-02-15T14:32:38;24.98;;;16.38;;
25237;SDS011;13185;50.872;5.306;2023-02-15T14:35:14;25.35;;;16.55;;
25237;SDS011;13185;50.872;5.306;2023-02-15T14:40:48;29.10;;;16.08;;
25237;SDS011;13185;50.872;5.306;2023-02-15T14:54:08;22.27;;;14.68;;
25237;SDS011;13185;50.872;5.306;2023-02-15T14:56:35;26.67;;;16.33;;
25237;SDS011;13185;50.872;5.306;2023-02-15T14:59:11;23.63;;;15.23;;
25237;SDS011;13185;50.872;5.306;2023-02-15T15:01:41;22.15;;;15.23;;
25237;SDS011;13185;50.872;5.306;2023-02-15T15:04:22;27.20;;;15.85;;
25237;SDS011;13185;50.872;5.306;2023-02-15T15:09:59;27.17;;;15.73;;
25237;SDS011;13185;50.872;5.306;2023-02-15T15:12:52;25.60;;;16.35;;
25237;SDS011;13185;50.872;5.306;2023-02-15T15:15:44;26.35;;;15.93;;
25237;SDS011;13185;50.872;5.306;2023-02-15T15:18:42;26.38;;;16.83;;
25237;SDS011;13185;50.872;5.306;2023-02-15T15:21:11;23.45;;;15.20;;
25237;SDS011;13185;50.872;5.306;2023-02-15T15:23:56;23.35;;;15.35;;
25237;SDS011;13185;50.872;5.306;2023-02-15T15:31:22;25.83;;;16.50;;
25237;SDS011;13185;50.872;5.306;2023-02-15T15:37:17;27.58;;;16.95;;
25237;SDS011;13185;50.872;5.306;2023-02-15T15:46:06;25.60;;;17.50;;
25237;SDS011;13185;50.872;5.306;2023-02-15T15:48:49;27.85;;;18.00;;
25237;SDS011;13185;50.872;5.306;2023-02-15T15:51:20;29.00;;;18.20;;
25237;SDS011;13185;50.872;5.306;2023-02-15T15:53:52;28.27;;;18.05;;
25237;SDS011;13185;50.872;5.306;2023-02-15T15:56:26;29.83;;;18.20;;
25237;SDS011;13185;50.872;5.306;2023-02-15T15:59:01;29.73;;;18.05;;
25237;SDS011;13185;50.872;5.306;2023-02-15T16:01:30;28.10;;;18.23;;
25237;SDS011;13185;50.872;5.306;2023-02-15T16:04:03;31.10;;;17.92;;
25237;SDS011;13185;50.872;5.306;2023-02-15T16:06:33;26.17;;;17.73;;
25237;SDS011;13185;50.872;5.306;2023-02-15T16:09:17;28.42;;;17.70;;
25237;SDS011;13185;50.872;5.306;2023-02-15T16:11:48;30.42;;;19.08;;
25237;SDS011;13185;50.872;5.306;2023-02-15T16:14:26;28.58;;;17.67;;
25237;SDS011;13185;50.872;5.306;2023-02-15T16:17:05;32.33;;;18.25;;
25237;SDS011;13185;50.872;5.306;2023-02-15T16:19:42;27.85;;;17.35;;
25237;SDS011;13185;50.872;5.306;2023-02-15T16:22:16;29.70;;;18.48;;
25237;SDS011;13185;50.872;5.306;2023-02-15T16:25:07;26.15;;;17.63;;
25237;SDS011;13185;50.872;5.306;2023-02-15T16:27:46;29.45;;;17.80;;
25237;SDS011;13185;50.872;5.306;2023-02-15T16:30:17;37.08;;;19.63;;
25237;SDS011;13185;50.872;5.306;2023-02-15T16:32:48;27.27;;;18.08;;
25237;SDS011;13185;50.872;5.306;2023-02-15T16:35:18;31.45;;;19.63;;
25237;SDS011;13185;50.872;5.306;2023-02-15T16:37:45;29.35;;;19.17;;
25237;SDS011;13185;50.872;5.306;2023-02-15T16:42:49;28.88;;;18.58;;
25237;SDS011;13185;50.872;5.306;2023-02-15T16:45:16;31.40;;;18.33;;
25237;SDS011;13185;50.872;5.306;2023-02-15T16:47:45;32.03;;;19.05;;
25237;SDS011;13185;50.872;5.306;2023-02-15T16:50:17;30.02;;;18.48;;
25237;SDS011;13185;50.872;5.306;2023-02-15T16:52:48;31.33;;;19.17;;
25237;SDS011;13185;50.872;5.306;2023-02-15T16:55:24;30.05;;;18.83;;
25237;SDS011;13185;50.872;5.306;2023-02-15T16:57:55;31.83;;;19.38;;
25237;SDS011;13185;50.872;5.306;2023-02-15T17:00:25;26.70;;;18.85;;
25237;SDS011;13185;50.872;5.306;2023-02-15T17:02:54;30.95;;;19.02;;
25237;SDS011;13185;50.872;5.306;2023-02-15T17:05:23;30.73;;;19.63;;
25237;SDS011;13185;50.872;5.306;2023-02-15T17:10:31;33.17;;;20.85;;
25237;SDS011;13185;50.872;5.306;2023-02-15T17:13:02;30.77;;;19.60;;
25237;SDS011;13185;50.872;5.306;2023-02-15T17:15:35;32.45;;;20.27;;
25237;SDS011;13185;50.872;5.306;2023-02-15T17:18:06;37.00;;;21.08;;
25237;SDS011;13185;50.872;5.306;2023-02-15T17:20:40;31.17;;;20.17;;
25237;SDS011;13185;50.872;5.306;2023-02-15T17:25:55;33.00;;;19.92;;
25237;SDS011;13185;50.872;5.306;2023-02-15T17:28:23;29.65;;;19.17;;
25237;SDS011;13185;50.872;5.306;2023-02-15T17:30:50;32.13;;;19.58;;
25237;SDS011;13185;50.872;5.306;2023-02-15T17:33:39;33.33;;;19.40;;
25237;SDS011;13185;50.872;5.306;2023-02-15T17:36:14;32.63;;;19.42;;
25237;SDS011;13185;50.872;5.306;2023-02-15T17:41:21;30.73;;;20.30;;
25237;SDS011;13185;50.872;5.306;2023-02-15T17:43:47;33.22;;;21.05;;
25237;SDS011;13185;50.872;5.306;2023-02-15T17:46:13;32.83;;;21.65;;
25237;SDS011;13185;50.872;5.306;2023-02-15T17:48:41;35.55;;;20.45;;
25237;SDS011;13185;50.872;5.306;2023-02-15T17:51:10;34.13;;;22.15;;